Time;durP1;ratioP1;P1;durP2;ratioP2;P2;SDS_P1;SDS_P2;PMS_P1;PMS_P2;Temp;Humidity;BMP_temperature;BMP_pressure;BME280_temperature;BME280_humidity;BME280_pressure;Samples;Min_cycle;Max_cycle;Signal;HPM_P1;HPM_P2
2022/10/24 00:02:02;;;;;;;10.05;6.32;;;;;;;7.54;69.35;98938.66;5035280;28;20038;-62
2022/10/24 00:04:27;;;;;;;10.23;5.90;;;;;;;7.85;69.59;98994.72;5035528;28;20021;-61
2022/10/24 00:06:52;;;;;;;11.20;6.88;;;;;;;7.97;69.67;99011.53;5035573;28;20029;-61
2022/10/24 00:09:18;;;;;;;9.43;6.55;;;;;;;7.96;69.05;99007.16;5051306;28;20101;-61
2022/10/24 00:11:43;;;;;;;9.70;6.15;;;;;;;7.90;68.75;99005.84;5054881;28;20083;-61
2022/10/24 00:14:09;;;;;;;11.98;6.85;;;;;;;7.93;68.68;99009.25;5055279;28;20044;-60
2022/10/24 00:16:34;;;;;;;11.40;7.13;;;;;;;7.94;68.37;99005.59;5055293;28;20037;-61
2022/10/24 00:19:00;;;;;;;10.23;6.82;;;;;;;7.97;68.00;99018.69;5054092;28;20049;-62
2022/10/24 00:21:26;;;;;;;9.80;6.82;;;;;;;7.90;67.58;99005.84;5054709;28;20029;-60
2022/10/24 00:23:51;;;;;;;12.80;6.80;;;;;;;7.93;67.62;99009.25;5055516;28;20098;-61
2022/10/24 00:26:17;;;;;;;11.68;8.07;;;;;;;7.96;67.38;99017.00;5053124;28;20029;-61
2022/10/24 00:28:43;;;;;;;11.90;7.85;;;;;;;7.83;67.23;98996.69;5054118;28;20040;-61
2022/10/24 00:31:13;;;;;;;14.32;8.20;;;;;;;7.95;66.58;99002.81;5053009;28;20069;-61
2022/10/24 00:33:39;;;;;;;15.25;8.73;;;;;;;7.89;66.16;99003.34;5055083;28;20068;-59
2022/10/24 00:36:10;;;;;;;20.00;9.25;;;;;;;7.93;66.19;99009.25;5055059;28;20065;-61
2022/10/24 00:38:35;;;;;;;12.73;8.82;;;;;;;7.82;65.90;99005.66;5040208;28;20045;-61
2022/10/24 00:41:01;;;;;;;14.27;9.75;;;;;;;7.79;66.30;99000.59;5034150;28;20425;-64
2022/10/24 00:43:27;;;;;;;17.77;9.95;;;;;;;7.71;66.51;98990.53;5034549;28;20041;-62
2022/10/24 00:45:58;;;;;;;16.15;9.77;;;;;;;7.80;66.58;99004.94;5050921;28;20133;-61
2022/10/24 00:48:29;;;;;;;16.23;9.80;;;;;;;7.82;66.49;99013.66;5054380;28;20041;-61
2022/10/24 00:51:00;;;;;;;15.88;9.60;;;;;;;7.78;66.90;99000.69;5054116;28;20036;-61
2022/10/24 00:53:28;;;;;;;17.42;9.90;;;;;;;7.70;67.03;98996.00;5054444;28;20440;-61
2022/10/24 00:55:56;;;;;;;17.55;10.38;;;;;;;7.74;66.89;99000.94;5040043;28;20105;-62
2022/10/24 00:58:25;;;;;;;16.63;9.98;;;;;;;7.71;67.13;99001.22;5051062;28;20451;-61
2022/10/24 01:00:51;;;;;;;16.77;9.57;;;;;;;7.78;66.56;99000.69;5054030;28;20109;-62
2022/10/24 01:03:16;;;;;;;13.73;9.65;;;;;;;7.73;67.01;98993.09;5054130;28;20033;-62
2022/10/24 01:06:09;;;;;;;14.40;9.93;;;;;;;7.79;67.42;98997.06;5054173;28;20025;-62
2022/10/24 01:08:47;;;;;;;13.10;9.32;;;;;;;7.81;67.52;98987.97;5034032;28;20129;-61
2022/10/24 01:11:37;;;;;;;17.60;10.05;;;;;;;7.80;67.73;98993.41;5033779;28;20083;-61
2022/10/24 01:14:41;;;;;;;17.98;10.43;;;;;;;7.85;68.01;98997.41;5034107;28;20452;-60
2022/10/24 01:17:14;;;;;;;15.25;10.15;;;;;;;7.76;68.14;98998.19;5039763;28;20108;-60
2022/10/24 01:19:49;;;;;;;16.15;10.15;;;;;;;7.77;68.09;99002.53;5053694;28;20040;-61
2022/10/24 01:22:18;;;;;;;17.75;10.43;;;;;;;7.72;68.13;99002.06;5051866;28;20125;-61
2022/10/24 01:25:08;;;;;;;16.42;10.38;;;;;;;7.76;68.15;99011.50;5053719;28;20033;-61
2022/10/24 01:28:03;;;;;;;17.80;10.65;;;;;;;7.79;68.16;99007.72;5038104;28;20121;-61
2022/10/24 01:30:34;;;;;;;17.95;10.60;;;;;;;7.75;67.84;99021.28;5033324;28;20050;-62
2022/10/24 01:33:17;;;;;;;14.77;9.93;;;;;;;7.83;67.93;99018.00;5033682;28;20041;-61
2022/10/24 01:35:50;;;;;;;15.40;10.80;;;;;;;7.70;66.97;99012.84;5037201;28;20025;-61
2022/10/24 01:38:20;;;;;;;17.55;11.18;;;;;;;7.68;66.74;99017.44;5052383;28;20037;-61
2022/10/24 01:40:54;;;;;;;17.02;11.27;;;;;;;7.67;66.98;99013.09;5053251;28;20033;-62
2022/10/24 01:43:38;;;;;;;17.08;12.35;;;;;;;7.68;66.63;99001.47;5053671;28;20033;-62
2022/10/24 01:46:08;;;;;;;18.40;12.13;;;;;;;7.62;66.07;99012.63;5033198;28;20073;-62
2022/10/24 01:48:39;;;;;;;18.65;11.98;;;;;;;7.59;66.24;99010.19;5033240;28;20105;-60
2022/10/24 01:51:06;;;;;;;18.63;11.75;;;;;;;7.54;66.49;99012.38;5033743;28;20123;-61
2022/10/24 01:53:34;;;;;;;19.00;12.07;;;;;;;7.49;66.57;99003.94;5033233;28;20030;-61
2022/10/24 01:56:00;;;;;;;20.23;12.77;;;;;;;7.45;66.81;99001.50;5033505;28;20033;-63
2022/10/24 01:58:25;;;;;;;21.20;12.88;;;;;;;7.45;66.49;99009.50;5041482;28;20043;-60
2022/10/24 02:00:56;;;;;;;21.20;14.10;;;;;;;7.41;66.83;99020.53;5053361;28;20032;-59
2022/10/24 02:03:28;;;;;;;19.80;13.60;;;;;;;7.41;67.03;99020.53;5053177;28;20029;-60
2022/10/24 02:06:05;;;;;;;22.65;13.77;;;;;;;7.34;67.03;99012.16;5052085;28;20029;-60
2022/10/24 02:08:36;;;;;;;23.40;14.07;;;;;;;7.38;67.00;99015.44;5053192;28;20047;-63
2022/10/24 02:11:05;;;;;;;22.65;14.50;;;;;;;7.38;67.19;99018.09;5053499;28;20036;-63
2022/10/24 02:13:38;;;;;;;23.45;14.63;;;;;;;7.36;67.25;99020.91;5051643;28;20035;-65
2022/10/24 02:16:04;;;;;;;23.73;14.38;;;;;;;7.24;67.14;99009.44;5051771;28;20414;-61
2022/10/24 02:18:32;;;;;;;25.13;15.65;;;;;;;7.39;67.01;99023.31;5042449;28;20099;-61
2022/10/24 02:21:03;;;;;;;26.00;15.57;;;;;;;7.32;66.78;99022.97;5033420;28;20110;-61
2022/10/24 02:23:44;;;;;;;24.35;14.80;;;;;;;7.36;67.01;99017.38;5048770;28;20095;-61
2022/10/24 02:26:20;;;;;;;23.75;14.70;;;;;;;7.32;66.88;99028.28;5052383;28;20052;-61
2022/10/24 02:28:48;;;;;;;26.42;15.27;;;;;;;7.21;67.06;99041.59;5052737;28;20383;-59
2022/10/24 02:31:20;;;;;;;25.40;14.85;;;;;;;7.21;67.32;99038.09;5052846;28;20036;-61
2022/10/24 02:33:48;;;;;;;26.38;15.75;;;;;;;6.98;67.59;99004.34;5052305;28;20365;-64
2022/10/24 02:36:17;;;;;;;25.38;14.70;;;;;;;7.18;67.82;99036.53;5052227;28;20447;-60
2022/10/24 02:38:46;;;;;;;28.35;15.30;;;;;;;7.11;67.76;99037.97;5051869;28;20037;-60
2022/10/24 02:41:15;;;;;;;28.60;16.13;;;;;;;7.11;68.13;99030.00;5051299;28;20053;-61
2022/10/24 02:43:43;;;;;;;27.58;15.70;;;;;;;7.09;68.23;99042.59;5052354;28;20506;-62
2022/10/24 02:46:11;;;;;;;28.55;14.98;;;;;;;7.09;68.43;99043.41;5046920;28;20136;-59
2022/10/24 02:48:41;;;;;;;29.38;15.68;;;;;;;7.08;68.48;99048.88;5032615;28;20110;-61
2022/10/24 02:51:08;;;;;;;31.00;15.60;;;;;;;7.11;68.34;99043.31;5032512;28;20076;-61
2022/10/24 02:53:35;;;;;;;27.80;14.90;;;;;;;7.04;68.33;99050.91;5033782;28;20037;-63
2022/10/24 02:56:01;;;;;;;27.40;14.80;;;;;;;6.98;68.91;99060.22;5052343;28;20381;-59
2022/10/24 02:58:26;;;;;;;27.05;14.82;;;;;;;6.94;69.14;99052.63;5041042;28;20033;-60
2022/10/24 03:00:52;;;;;;;25.85;13.80;;;;;;;6.96;69.07;99058.66;5031077;28;20033;-61
2022/10/24 03:03:17;;;;;;;24.02;14.27;;;;;;;6.98;69.29;99049.56;5031265;28;20036;-61
2022/10/24 03:05:42;;;;;;;23.67;14.00;;;;;;;7.00;69.21;99058.31;5032009;28;20416;-61
2022/10/24 03:08:08;;;;;;;25.30;15.25;;;;;;;6.99;69.42;99064.59;5032210;28;20033;-60
2022/10/24 03:10:33;;;;;;;24.42;13.35;;;;;;;6.96;69.35;99062.16;5039730;28;20378;-61
2022/10/24 03:12:59;;;;;;;21.88;13.23;;;;;;;6.89;70.01;99063.63;5036688;28;20095;-60
2022/10/24 03:15:25;;;;;;;20.83;12.55;;;;;;;6.89;70.63;99063.63;5032271;28;20148;-61
2022/10/24 03:17:50;;;;;;;21.30;12.63;;;;;;;6.91;70.51;99066.16;5038030;28;20116;-62
2022/10/24 03:20:16;;;;;;;24.05;13.30;;;;;;;6.94;70.35;99066.75;5035820;28;20120;-60
2022/10/24 03:22:41;;;;;;;22.70;13.75;;;;;;;6.94;70.35;99071.25;5036026;28;20108;-60
2022/10/24 03:25:07;;;;;;;22.20;12.85;;;;;;;6.92;70.88;99073.19;5035974;28;20372;-62
2022/10/24 03:27:33;;;;;;;21.17;12.05;;;;;;;6.97;70.70;99076.31;5036093;28;20030;-60
2022/10/24 03:29:59;;;;;;;18.95;11.50;;;;;;;6.96;70.69;99080.78;5054870;28;20029;-61
2022/10/24 03:32:25;;;;;;;20.77;11.80;;;;;;;6.89;70.49;99074.25;5055627;28;20148;-61
2022/10/24 03:34:51;;;;;;;20.63;11.98;;;;;;;6.95;70.78;99083.59;5045656;28;20112;-60
2022/10/24 03:37:16;;;;;;;19.42;12.00;;;;;;;6.96;70.56;99080.78;5036875;28;20514;-61
2022/10/24 03:39:42;;;;;;;20.40;11.57;;;;;;;6.95;70.68;99087.06;5035687;28;20041;-60
2022/10/24 03:42:08;;;;;;;17.80;10.18;;;;;;;6.98;70.37;99083.34;5035434;28;20057;-63
2022/10/24 03:44:33;;;;;;;19.55;10.75;;;;;;;6.94;70.65;99088.03;5035912;28;20041;-61
2022/10/24 03:46:58;;;;;;;16.88;10.27;;;;;;;6.93;70.56;99097.00;5035933;28;20033;-61
2022/10/24 03:49:24;;;;;;;22.25;11.05;;;;;;;6.81;70.33;99066.84;5052145;28;20087;-61
2022/10/24 03:51:49;;;;;;;19.13;10.70;;;;;;;6.95;70.64;99088.91;5054412;28;20467;-61
2022/10/24 03:54:15;;;;;;;16.38;10.23;;;;;;;6.94;70.71;99087.22;5055779;28;20444;-61
2022/10/24 03:56:42;;;;;;;19.65;10.35;;;;;;;6.94;70.82;99096.03;5055773;28;20371;-62
2022/10/24 03:59:08;;;;;;;14.70;10.07;;;;;;;6.97;70.88;99102.94;5037122;28;20507;-61
2022/10/24 04:01:33;;;;;;;17.60;10.38;;;;;;;6.94;70.67;99100.53;5043555;28;20167;-61
2022/10/24 04:03:58;;;;;;;16.55;10.70;;;;;;;6.92;70.79;99111.28;5072441;28;20059;-60
2022/10/24 04:06:24;;;;;;;15.20;9.57;;;;;;;6.93;70.62;99112.13;5055394;28;20447;-59
2022/10/24 04:08:49;;;;;;;14.00;9.32;;;;;;;6.92;70.97;99110.44;5055281;28;20029;-58
2022/10/24 04:11:15;;;;;;;17.92;10.05;;;;;;;6.92;70.70;99113.09;5054631;28;20104;-54
2022/10/24 04:13:40;;;;;;;13.25;8.95;;;;;;;6.92;70.87;99113.94;5055132;28;20107;-59
2022/10/24 04:16:07;;;;;;;17.52;9.38;;;;;;;6.93;70.96;99122.78;5055509;28;20029;-61
2022/10/24 04:18:32;;;;;;;15.20;9.05;;;;;;;6.95;70.55;99113.69;5041042;28;20349;-61
2022/10/24 04:20:58;;;;;;;14.05;8.88;;;;;;;6.97;70.57;99114.41;5035677;28;20102;-61
2022/10/24 04:23:23;;;;;;;12.02;7.78;;;;;;;6.94;70.70;99119.97;5051099;28;20040;-61
2022/10/24 04:25:49;;;;;;;11.80;7.85;;;;;;;6.93;71.13;99122.78;5055011;28;20033;-61
2022/10/24 04:28:14;;;;;;;12.63;7.95;;;;;;;6.88;70.93;99123.97;5054163;28;20368;-64
2022/10/24 04:30:39;;;;;;;12.32;8.07;;;;;;;6.93;71.00;99123.59;5054758;28;20108;-62
2022/10/24 04:33:05;;;;;;;12.70;7.82;;;;;;;7.00;70.72;99126.66;5054994;28;20075;-61
2022/10/24 04:35:30;;;;;;;13.18;7.97;;;;;;;7.03;70.84;99121.94;5053242;28;20076;-61
2022/10/24 04:37:56;;;;;;;10.27;7.45;;;;;;;7.07;70.65;99127.03;5040075;28;20044;-61
2022/10/24 04:40:21;;;;;;;10.95;7.43;;;;;;;7.10;70.19;99134.78;5034658;28;20026;-61
2022/10/24 04:42:47;;;;;;;11.68;7.57;;;;;;;7.10;70.11;99130.28;5033818;28;20053;-62
2022/10/24 04:45:12;;;;;;;9.40;6.38;;;;;;;7.17;69.90;99130.66;5035427;28;20405;-61
2022/10/24 04:47:38;;;;;;;11.20;6.80;;;;;;;7.15;70.06;99124.63;5035734;28;20037;-61
2022/10/24 04:50:04;;;;;;;10.20;7.05;;;;;;;7.07;69.90;99124.38;5048277;28;20032;-62
2022/10/24 04:52:29;;;;;;;8.90;6.55;;;;;;;7.20;69.67;99149.06;5053977;28;20153;-62
2022/10/24 04:54:55;;;;;;;10.20;6.20;;;;;;;7.21;70.09;99158.75;5053993;28;20026;-62
2022/10/24 04:57:20;;;;;;;11.35;6.85;;;;;;;7.24;69.93;99157.66;5037089;28;20099;-62
2022/10/24 04:59:45;;;;;;;11.98;6.57;;;;;;;7.26;69.64;99156.59;5034145;28;20041;-62
2022/10/24 05:02:11;;;;;;;8.20;6.13;;;;;;;7.22;69.87;99157.78;5033805;28;20060;-63
2022/10/24 05:04:36;;;;;;;9.30;6.57;;;;;;;7.25;69.66;99159.38;5035192;28;20088;-62
2022/10/24 05:07:02;;;;;;;7.45;5.53;;;;;;;7.24;69.72;99163.84;5053751;28;20114;-60
2022/10/24 05:09:27;;;;;;;10.85;6.28;;;;;;;7.27;69.29;99170.75;5036191;28;20037;-61
2022/10/24 05:11:56;;;;;;;11.90;6.20;;;;;;;7.29;69.09;99177.66;5034020;28;20079;-61
2022/10/24 05:14:22;;;;;;;7.93;6.15;;;;;;;7.29;68.87;99177.66;5033622;28;20056;-61
2022/10/24 05:16:48;;;;;;;9.65;6.35;;;;;;;7.23;69.70;99172.78;5046580;28;20041;-62
2022/10/24 05:19:14;;;;;;;9.38;6.60;;;;;;;7.24;69.27;99166.50;5041743;28;20029;-61
2022/10/24 05:21:40;;;;;;;8.38;6.35;;;;;;;7.20;69.42;99178.34;5045998;28;20091;-64
2022/10/24 05:24:06;;;;;;;9.05;6.30;;;;;;;7.22;69.84;99181.72;5033478;28;20037;-64
2022/10/24 05:26:31;;;;;;;9.95;6.40;;;;;;;7.24;69.56;99184.28;5033427;28;20025;-63
2022/10/24 05:28:57;;;;;;;10.73;6.35;;;;;;;7.28;69.29;99196.41;5044276;28;20032;-65
2022/10/24 05:31:22;;;;;;;9.93;6.40;;;;;;;7.31;69.33;99196.16;5036847;28;20420;-69
2022/10/24 05:33:47;;;;;;;13.27;6.75;;;;;;;7.35;69.10;99191.44;5032737;28;20037;-61
2022/10/24 05:36:13;;;;;;;10.77;6.43;;;;;;;7.38;68.93;99181.41;5048188;28;20041;-62
2022/10/24 05:38:38;;;;;;;10.57;6.57;;;;;;;7.44;68.80;99196.91;5033405;28;20029;-57
2022/10/24 05:41:04;;;;;;;11.52;7.35;;;;;;;7.50;68.88;99197.41;5044920;28;20352;-63
2022/10/24 05:43:29;;;;;;;9.95;6.70;;;;;;;7.49;68.68;99204.56;5053519;28;20037;-65
2022/10/24 05:45:55;;;;;;;9.18;6.72;;;;;;;7.26;68.84;99175.22;5053465;28;20025;-62
2022/10/24 05:48:20;;;;;;;8.93;7.18;;;;;;;7.42;68.82;99204.19;5052099;28;20033;-63
2022/10/24 05:50:46;;;;;;;11.68;7.55;;;;;;;7.31;68.98;99196.16;5053007;28;20114;-63
2022/10/24 05:53:11;;;;;;;11.02;7.60;;;;;;;7.43;69.20;99224.53;5033784;28;20029;-64
2022/10/24 05:55:37;;;;;;;10.65;7.13;;;;;;;7.44;68.83;99220.03;5049674;28;20043;-64
2022/10/24 05:58:02;;;;;;;10.60;7.57;;;;;;;7.38;69.24;99209.84;5053160;28;20029;-64
2022/10/24 06:00:28;;;;;;;9.57;6.95;;;;;;;7.39;69.61;99224.88;5053440;28;20057;-65
2022/10/24 06:02:53;;;;;;;10.35;7.13;;;;;;;7.40;69.37;99226.56;5053190;28;20029;-66
2022/10/24 06:05:19;;;;;;;11.20;7.13;;;;;;;7.40;69.42;99210.56;5033737;28;20087;-65
2022/10/24 06:07:45;;;;;;;10.48;7.28;;;;;;;7.46;69.08;99224.28;5033011;28;20037;-65
2022/10/24 06:10:11;;;;;;;13.10;8.32;;;;;;;7.47;69.16;99223.31;5033353;28;20041;-65
2022/10/24 06:12:38;;;;;;;11.00;7.60;;;;;;;7.54;68.97;99234.34;5033007;28;20440;-63
2022/10/24 06:15:06;;;;;;;10.57;7.22;;;;;;;7.70;68.54;99227.78;5047203;28;20120;-64
2022/10/24 06:17:32;;;;;;;12.88;7.65;;;;;;;7.83;68.35;99233.00;5052452;28;20191;-64
2022/10/24 06:19:57;;;;;;;12.02;8.07;;;;;;;7.86;67.19;99217.63;5033559;28;20120;-65
2022/10/24 06:22:24;;;;;;;11.95;7.45;;;;;;;8.02;66.84;99229.75;5057623;28;20337;-65
2022/10/24 06:24:49;;;;;;;11.30;7.50;;;;;;;8.14;66.69;99234.09;5051877;28;20028;-66
2022/10/24 06:27:15;;;;;;;10.82;7.53;;;;;;;8.25;66.11;99237.72;5052676;28;20033;-65
2022/10/24 06:29:41;;;;;;;11.70;7.85;;;;;;;8.28;65.24;99235.66;5053224;28;20100;-65
2022/10/24 06:32:06;;;;;;;15.57;7.53;;;;;;;8.38;65.30;99229.59;5034245;28;20033;-66
2022/10/24 06:34:32;;;;;;;13.55;7.45;;;;;;;8.53;64.43;99222.19;5032571;28;20440;-65
2022/10/24 06:36:57;;;;;;;11.75;7.63;;;;;;;8.83;64.13;99226.81;5032755;28;20036;-65
2022/10/24 06:39:23;;;;;;;11.88;7.43;;;;;;;9.17;62.64;99234.66;5032922;28;20033;-64
2022/10/24 06:41:49;;;;;;;13.27;8.10;;;;;;;9.51;61.18;99230.06;5032547;28;20513;-65
2022/10/24 06:44:14;;;;;;;13.10;7.82;;;;;;;9.53;60.15;99204.94;5052779;28;20086;-65
2022/10/24 06:46:40;;;;;;;9.55;7.00;;;;;;;9.82;59.96;99206.88;5043405;28;20053;-65
2022/10/24 06:49:05;;;;;;;10.30;7.00;;;;;;;10.15;59.11;99229.00;5031125;28;20146;-65
2022/10/24 06:51:31;;;;;;;9.85;6.80;;;;;;;10.26;57.88;99240.56;5032045;28;20026;-65
2022/10/24 06:53:58;;;;;;;9.55;7.20;;;;;;;10.05;58.73;99238.78;5032273;28;20034;-65
2022/10/24 06:56:23;;;;;;;8.85;6.88;;;;;;;9.68;59.02;99209.94;5033085;28;20113;-66
2022/10/24 06:58:49;;;;;;;9.48;6.82;;;;;;;9.71;59.62;99239.06;5047336;28;20061;-67
2022/10/24 07:01:17;;;;;;;10.75;6.95;;;;;;;9.63;59.54;99231.72;5032689;28;20033;-66
2022/10/24 07:03:43;;;;;;;9.57;6.07;;;;;;;9.69;59.28;99252.56;5032632;28;20356;-67
2022/10/24 07:06:24;;;;;;;8.95;6.75;;;;;;;9.77;59.19;99252.75;5058604;28;20033;-67
2022/10/24 07:08:52;;;;;;;10.43;7.20;;;;;;;9.55;58.90;99248.41;5051982;28;20036;-65
2022/10/24 07:11:18;;;;;;;10.07;6.95;;;;;;;9.45;58.66;99252.84;5050443;28;20460;-65
2022/10/24 07:13:43;;;;;;;8.57;6.53;;;;;;;9.40;58.91;99253.22;5052539;28;20043;-65
2022/10/24 07:16:09;;;;;;;10.43;6.70;;;;;;;9.49;58.93;99254.28;5052233;28;20031;-66
2022/10/24 07:18:35;;;;;;;12.00;6.38;;;;;;;9.67;58.70;99257.19;5052161;28;20025;-65
2022/10/24 07:21:06;;;;;;;9.40;6.63;;;;;;;9.80;58.30;99248.13;5050520;28;20049;-65
2022/10/24 07:23:33;;;;;;;9.30;6.38;;;;;;;9.85;57.82;99264.59;5048092;28;20025;-60
2022/10/24 07:26:07;;;;;;;8.07;6.35;;;;;;;9.88;57.69;99265.16;5042067;28;20116;-70
2022/10/24 07:28:35;;;;;;;8.23;5.83;;;;;;;9.80;57.83;99261.50;5035669;28;20107;-65
2022/10/24 07:31:00;;;;;;;9.43;6.32;;;;;;;9.70;57.71;99262.25;5039603;28;20036;-74
2022/10/24 07:33:27;;;;;;;10.85;6.72;;;;;;;9.78;57.97;99269.63;5031740;28;20128;-72
2022/10/24 07:35:53;;;;;;;8.40;5.70;;;;;;;10.02;56.74;99257.78;5037648;28;20059;-72
2022/10/24 07:38:18;;;;;;;8.60;6.15;;;;;;;10.27;55.96;99269.84;5050876;28;20033;-66
2022/10/24 07:40:44;;;;;;;9.70;6.45;;;;;;;10.56;55.57;99253.06;5051262;28;20025;-69
2022/10/24 07:43:10;;;;;;;9.13;6.47;;;;;;;10.97;54.36;99281.56;5051578;28;20427;-68
2022/10/24 07:45:37;;;;;;;9.82;6.13;;;;;;;11.08;53.53;99278.75;5050751;28;20037;-68
2022/10/24 07:48:05;;;;;;;11.18;6.20;;;;;;;10.91;53.84;99266.91;5041652;28;20057;-66
2022/10/24 07:50:40;;;;;;;8.02;5.60;;;;;;;10.81;53.72;99276.75;5032735;28;20060;-65
2022/10/24 07:53:05;;;;;;;8.80;5.80;;;;;;;10.91;52.89;99277.63;5043986;28;20033;-66
2022/10/24 07:55:30;;;;;;;9.93;5.45;;;;;;;11.00;52.88;99275.94;5047818;28;20076;-67
2022/10/24 07:57:56;;;;;;;7.47;5.70;;;;;;;11.01;52.72;99289.19;5058666;28;20037;-65
2022/10/24 08:00:22;;;;;;;12.45;5.80;;;;;;;10.91;53.44;99285.66;5050562;28;20037;-66
2022/10/24 08:02:47;;;;;;;8.70;5.50;;;;;;;10.84;53.21;99292.53;5051482;28;20025;-65
2022/10/24 08:05:13;;;;;;;9.23;5.40;;;;;;;10.75;53.76;99299.59;5053850;28;20033;-66
2022/10/24 08:07:38;;;;;;;6.18;4.90;;;;;;;10.69;54.04;99302.81;5062593;28;20481;-64
2022/10/24 08:10:05;;;;;;;9.63;5.10;;;;;;;10.73;54.01;99282.78;5035595;28;20108;-64
2022/10/24 08:12:30;;;;;;;7.90;4.40;;;;;;;10.95;53.51;99295.09;5038919;28;20103;-64
2022/10/24 08:14:55;;;;;;;7.55;4.40;;;;;;;10.96;54.30;99296.78;5041996;28;20034;-65
2022/10/24 08:17:22;;;;;;;5.57;4.00;;;;;;;10.87;54.52;99305.69;5035327;28;20033;-64
2022/10/24 08:19:48;;;;;;;9.52;3.95;;;;;;;10.71;55.12;99315.09;5047525;28;20037;-64
2022/10/24 08:22:15;;;;;;;4.00;3.60;;;;;;;10.60;54.75;99318.72;5067429;28;20040;-64
2022/10/24 08:24:44;;;;;;;8.45;3.55;;;;;;;10.54;55.31;99318.41;5073746;28;20367;-64
2022/10/24 08:27:10;;;;;;;4.55;3.03;;;;;;;10.47;55.12;99324.31;5044443;28;20103;-64
2022/10/24 08:29:35;;;;;;;6.07;3.60;;;;;;;10.33;56.13;99316.59;5048378;28;20068;-64
2022/10/24 08:32:01;;;;;;;4.05;2.75;;;;;;;10.32;56.14;99325.63;5034724;28;20159;-73
2022/10/24 08:34:27;;;;;;;3.53;2.85;;;;;;;10.39;56.27;99332.16;5036871;28;20034;-66
2022/10/24 08:36:52;;;;;;;2.95;2.72;;;;;;;10.57;55.63;99340.41;5054661;28;20037;-68
2022/10/24 08:39:18;;;;;;;3.72;2.95;;;;;;;10.69;54.54;99332.25;5053814;28;20119;-68
2022/10/24 08:41:54;;;;;;;4.47;3.40;;;;;;;10.80;55.05;99339.31;5057526;28;20052;-66
2022/10/24 08:44:27;;;;;;;3.38;3.00;;;;;;;10.71;55.04;99346.34;5053819;28;20056;-69
2022/10/24 08:46:58;;;;;;;3.95;3.55;;;;;;;10.48;55.64;99341.19;5054352;28;20029;-71
2022/10/24 08:50:03;;;;;;;4.35;3.55;;;;;;;10.30;56.06;99335.63;5033922;28;20036;-66
2022/10/24 08:52:39;;;;;;;4.82;3.42;;;;;;;10.05;56.76;99349.31;5041435;28;20068;-66
2022/10/24 08:55:19;;;;;;;7.03;3.83;;;;;;;10.06;57.17;99355.50;5053500;28;20033;-67
2022/10/24 08:57:49;;;;;;;4.95;3.65;;;;;;;9.84;57.60;99353.81;5040253;28;20459;-66
2022/10/24 09:00:20;;;;;;;5.53;3.70;;;;;;;9.77;57.96;99358.84;5054330;28;20075;-68
2022/10/24 09:02:52;;;;;;;5.40;3.58;;;;;;;9.83;57.95;99360.97;5052324;28;20035;-69
2022/10/24 09:05:23;;;;;;;5.25;3.40;;;;;;;9.99;57.82;99359.69;5042779;28;20038;-67
2022/10/24 09:07:54;;;;;;;5.35;3.97;;;;;;;10.14;57.86;99370.88;5048397;28;20081;-70
2022/10/24 09:10:30;;;;;;;5.35;4.20;;;;;;;10.17;57.54;99366.13;5054148;28;20115;-74
2022/10/24 09:12:56;;;;;;;5.40;4.25;;;;;;;10.11;57.34;99347.91;5053952;28;20040;-61
2022/10/24 09:15:28;;;;;;;7.35;4.07;;;;;;;10.47;57.06;99383.19;5053155;28;20029;-67
2022/10/24 09:17:55;;;;;;;6.72;4.20;;;;;;;10.52;55.69;99380.13;5066944;28;20040;-65
2022/10/24 09:20:24;;;;;;;6.68;3.50;;;;;;;10.53;55.61;99375.59;5052427;28;20087;-66
2022/10/24 09:22:54;;;;;;;5.53;3.67;;;;;;;10.60;55.36;99376.75;5053696;28;20029;-69
2022/10/24 09:25:28;;;;;;;7.10;4.35;;;;;;;10.75;55.39;99388.78;5053437;28;20036;-65
2022/10/24 09:27:56;;;;;;;6.80;4.25;;;;;;;10.59;54.81;99375.06;5051748;28;20406;-65
2022/10/24 09:30:25;;;;;;;8.40;3.88;;;;;;;10.36;54.36;99387.75;5051471;28;20025;-72
2022/10/24 09:32:51;;;;;;;4.70;3.50;;;;;;;10.10;55.05;99389.00;5051498;28;20029;-70
2022/10/24 09:35:21;;;;;;;5.03;3.25;;;;;;;10.06;55.24;99384.91;5053112;28;20106;-66
2022/10/24 09:37:57;;;;;;;5.40;3.63;;;;;;;9.83;53.98;99365.50;5062018;28;20089;-67
2022/10/24 09:40:32;;;;;;;7.50;3.50;;;;;;;9.94;54.35;99391.31;5054145;28;20105;-67
2022/10/24 09:43:19;;;;;;;3.80;3.10;;;;;;;10.04;53.67;99384.19;5053071;28;20048;-65
2022/10/24 09:45:49;;;;;;;4.70;3.25;;;;;;;10.24;53.10;99392.34;5052672;28;20425;-65
2022/10/24 09:49:00;;;;;;;4.95;3.03;;;;;;;10.56;51.95;99394.94;5037587;28;20437;-62
2022/10/24 09:51:40;;;;;;;3.80;2.50;;;;;;;10.80;49.29;99398.25;5033051;28;20051;-64
2022/10/24 09:54:25;;;;;;;2.75;1.98;;;;;;;10.79;49.35;99397.41;5032380;28;20029;-62
2022/10/24 09:56:58;;;;;;;3.42;2.00;;;;;;;10.54;49.35;99399.56;5046159;28;20517;-62
2022/10/24 09:59:41;;;;;;;4.10;3.10;;;;;;;10.38;49.02;99404.53;5041910;28;20037;-62
2022/10/24 10:02:09;;;;;;;3.40;2.60;;;;;;;10.30;49.85;99399.81;5033132;28;20405;-62
2022/10/24 10:04:35;;;;;;;4.53;2.50;;;;;;;10.23;48.64;99401.34;5043217;28;20075;-63
2022/10/24 10:07:08;;;;;;;3.47;2.50;;;;;;;10.45;48.83;99416.41;5046373;28;20417;-64
2022/10/24 10:09:40;;;;;;;3.70;2.00;;;;;;;10.48;47.20;99405.44;5048212;28;20107;-62
2022/10/24 10:12:25;;;;;;;4.35;2.20;;;;;;;10.70;48.00;99415.13;5052884;28;20029;-61
2022/10/24 10:14:51;;;;;;;3.07;2.10;;;;;;;10.56;46.82;99412.81;5034874;28;20052;-63
2022/10/24 10:17:26;;;;;;;4.25;2.30;;;;;;;10.40;47.70;99416.84;5042536;28;20713;-64
2022/10/24 10:19:54;;;;;;;2.97;2.40;;;;;;;10.24;47.65;99411.91;5046313;28;20033;-64
2022/10/24 10:22:28;;;;;;;2.50;2.30;;;;;;;10.11;47.90;99413.94;5068327;28;20037;-64
2022/10/24 10:24:55;;;;;;;4.53;1.85;;;;;;;9.81;47.73;99411.06;5052871;28;20033;-62
2022/10/24 10:27:34;;;;;;;3.92;2.20;;;;;;;9.73;47.49;99425.06;5051508;28;20096;-63
2022/10/24 10:30:13;;;;;;;2.75;2.05;;;;;;;9.64;48.42;99436.53;5051348;28;20418;-62
2022/10/24 10:32:53;;;;;;;2.50;1.60;;;;;;;9.51;48.09;99435.84;5051989;28;20037;-62
2022/10/24 10:35:59;;;;;;;2.03;1.80;;;;;;;9.41;48.47;99433.13;5052436;28;20062;-62
2022/10/24 10:38:43;;;;;;;3.40;2.20;;;;;;;9.18;48.56;99425.16;5049374;28;20041;-61
2022/10/24 10:41:31;;;;;;;5.40;2.20;;;;;;;9.37;49.22;99434.31;5051362;28;20467;-61
2022/10/24 10:44:39;;;;;;;4.10;2.70;;;;;;;9.57;49.03;99438.03;5052201;28;20056;-63
2022/10/24 10:47:19;;;;;;;2.47;2.13;;;;;;;9.93;48.07;99421.72;5013645;28;20037;-63
2022/10/24 10:49:51;;;;;;;2.75;1.98;;;;;;;9.83;47.28;99446.53;5049976;28;20112;-63
2022/10/24 10:52:36;;;;;;;2.55;2.03;;;;;;;10.03;47.49;99439.53;5057698;28;20152;-62
2022/10/24 10:55:23;;;;;;;3.17;2.10;;;;;;;10.40;47.29;99435.56;5070407;28;20032;-64
2022/10/24 10:57:48;;;;;;;5.95;2.20;;;;;;;10.34;46.82;99436.03;5040128;28;20040;-62
2022/10/24 11:00:20;;;;;;;4.25;2.10;;;;;;;10.22;47.69;99440.63;5052696;28;20033;-63
2022/10/24 11:02:57;;;;;;;5.28;2.10;;;;;;;9.94;48.17;99447.47;5046484;28;20033;-77
2022/10/24 11:05:48;;;;;;;2.47;2.17;;;;;;;9.77;48.99;99447.94;5051303;28;20070;-64
2022/10/24 11:08:44;;;;;;;2.13;1.75;;;;;;;9.50;49.47;99460.88;5040930;28;20083;-66
2022/10/24 11:11:22;;;;;;;2.78;2.05;;;;;;;9.14;49.82;99439.72;5051815;28;20059;-64
2022/10/24 11:13:58;;;;;;;2.38;1.80;;;;;;;8.88;50.05;99440.84;5032339;28;20033;-65
2022/10/24 11:16:28;;;;;;;6.03;1.58;;;;;;;8.63;50.03;99449.09;5043169;28;20167;-71
2022/10/24 11:19:02;;;;;;;2.67;1.90;;;;;;;8.48;50.40;99452.81;5052030;28;20033;-70
2022/10/24 11:21:32;;;;;;;3.85;2.00;;;;;;;8.25;50.85;99445.75;5050882;28;20029;-66
2022/10/24 11:24:24;;;;;;;2.28;1.70;;;;;;;8.26;51.44;99452.78;5063325;28;20040;-67
2022/10/24 11:27:09;;;;;;;2.92;2.05;;;;;;;7.99;52.00;99414.78;5065168;28;20102;-72
2022/10/24 11:29:55;;;;;;;4.00;2.20;;;;;;;8.22;51.61;99454.00;5037915;28;20452;-65
2022/10/24 11:32:27;;;;;;;;;;;;;;;8.48;51.89;99463.50;5052344;28;20033;-64
2022/10/24 11:35:01;;;;;;;3.03;1.75;;;;;;;8.29;49.37;99442.72;5051534;28;19923;-66
2022/10/24 11:37:37;;;;;;;5.05;1.70;;;;;;;8.34;47.82;99461.03;5030880;28;20041;-64
2022/10/24 11:40:10;;;;;;;1.75;1.30;;;;;;;8.31;46.75;99456.78;5035070;28;20124;-64
2022/10/24 11:42:51;;;;;;;4.80;1.38;;;;;;;8.36;47.07;99453.75;5035534;28;20057;-65
2022/10/24 11:45:19;;;;;;;3.17;1.60;;;;;;;8.30;47.08;99463.09;5034809;28;20042;-63
2022/10/24 11:48:23;;;;;;;3.05;1.45;;;;;;;8.32;46.68;99460.31;5035501;28;20030;-65